Didsbury, Canada
Current Conditions -  °F | °C
As of 4:00 PM on Friday 19 Dec 2014 (Local Time) from CYQF Reporting Station
Broken Clouds Broken Clouds  
Wind Chill: 28°   Ceiling: 13000
Heat Index: 28°   Visibility: 15mi
Dew Point: 25°   Wind: 3mph
Humidity: 86%   Direction: 200°SSW
Pressure: 29.61"   Gusts: NA
Location:  51.67°N, 114.13°W
Report Text: CYQF 192300Z 20003KT 15SM BKN130 BKN240 M02/M04 A2961 RMK AC5CI2 SLP078
Loading
Personal Weather Stations






























Interactive Weather Map New forecast layout! Learn more

10-Day Weather Forecast

Advertisements
Track Severe Weather on mobile